sensor_id;sensor_type;location;lat;lon;timestamp;P1;durP1;ratioP1;P2;durP2;ratioP2
23743;SDS011;12052;53.478;10.182;2022-10-31T00:01:19;31.85;;;15.25;;
23743;SDS011;12052;53.478;10.182;2022-10-31T00:03:48;27.55;;;15.55;;
23743;SDS011;12052;53.478;10.182;2022-10-31T00:06:14;23.65;;;14.70;;
23743;SDS011;12052;53.478;10.182;2022-10-31T00:08:40;26.10;;;15.15;;
23743;SDS011;12052;53.478;10.182;2022-10-31T00:11:09;28.40;;;14.93;;
23743;SDS011;12052;53.478;10.182;2022-10-31T00:13:35;28.60;;;15.18;;
23743;SDS011;12052;53.478;10.182;2022-10-31T00:16:00;25.17;;;14.70;;
23743;SDS011;12052;53.478;10.182;2022-10-31T00:18:26;28.08;;;15.05;;
23743;SDS011;12052;53.478;10.182;2022-10-31T00:20:58;28.00;;;15.77;;
23743;SDS011;12052;53.478;10.182;2022-10-31T00:23:25;25.38;;;14.57;;
23743;SDS011;12052;53.478;10.182;2022-10-31T00:25:50;25.27;;;14.63;;
23743;SDS011;12052;53.478;10.182;2022-10-31T00:28:16;27.05;;;15.45;;
23743;SDS011;12052;53.478;10.182;2022-10-31T00:30:41;28.42;;;14.02;;
23743;SDS011;12052;53.478;10.182;2022-10-31T00:33:07;26.48;;;14.75;;
23743;SDS011;12052;53.478;10.182;2022-10-31T00:35:32;25.55;;;13.90;;
23743;SDS011;12052;53.478;10.182;2022-10-31T00:37:58;24.67;;;13.75;;
23743;SDS011;12052;53.478;10.182;2022-10-31T00:40:23;21.13;;;11.98;;
23743;SDS011;12052;53.478;10.182;2022-10-31T00:42:49;20.08;;;12.32;;
23743;SDS011;12052;53.478;10.182;2022-10-31T00:45:14;21.00;;;11.85;;
23743;SDS011;12052;53.478;10.182;2022-10-31T00:47:40;21.08;;;12.88;;
23743;SDS011;12052;53.478;10.182;2022-10-31T00:50:06;22.08;;;11.93;;
23743;SDS011;12052;53.478;10.182;2022-10-31T00:52:32;20.02;;;12.20;;
23743;SDS011;12052;53.478;10.182;2022-10-31T00:54:58;21.77;;;11.80;;
23743;SDS011;12052;53.478;10.182;2022-10-31T00:57:23;27.55;;;13.38;;
23743;SDS011;12052;53.478;10.182;2022-10-31T00:59:49;21.50;;;13.10;;
23743;SDS011;12052;53.478;10.182;2022-10-31T01:02:14;22.13;;;12.30;;
23743;SDS011;12052;53.478;10.182;2022-10-31T01:04:40;15.35;;;10.40;;
23743;SDS011;12052;53.478;10.182;2022-10-31T01:07:05;17.60;;;10.93;;
23743;SDS011;12052;53.478;10.182;2022-10-31T01:09:31;22.83;;;12.48;;
23743;SDS011;12052;53.478;10.182;2022-10-31T01:11:57;26.00;;;15.35;;
23743;SDS011;12052;53.478;10.182;2022-10-31T01:14:22;26.35;;;12.52;;
23743;SDS011;12052;53.478;10.182;2022-10-31T01:16:48;23.00;;;12.45;;
23743;SDS011;12052;53.478;10.182;2022-10-31T01:19:13;18.60;;;11.50;;
23743;SDS011;12052;53.478;10.182;2022-10-31T01:21:39;20.38;;;12.07;;
23743;SDS011;12052;53.478;10.182;2022-10-31T01:24:05;21.90;;;11.50;;
23743;SDS011;12052;53.478;10.182;2022-10-31T01:26:32;19.85;;;11.75;;
23743;SDS011;12052;53.478;10.182;2022-10-31T01:29:02;19.10;;;11.18;;
23743;SDS011;12052;53.478;10.182;2022-10-31T01:31:31;19.65;;;11.95;;
23743;SDS011;12052;53.478;10.182;2022-10-31T01:33:58;17.92;;;11.82;;
23743;SDS011;12052;53.478;10.182;2022-10-31T01:36:26;21.80;;;11.68;;
23743;SDS011;12052;53.478;10.182;2022-10-31T01:38:55;18.63;;;11.30;;
23743;SDS011;12052;53.478;10.182;2022-10-31T01:41:23;16.85;;;9.43;;
23743;SDS011;12052;53.478;10.182;2022-10-31T01:43:55;18.73;;;10.63;;
23743;SDS011;12052;53.478;10.182;2022-10-31T01:49:22;17.80;;;10.02;;
23743;SDS011;12052;53.478;10.182;2022-10-31T01:51:59;18.30;;;10.02;;
23743;SDS011;12052;53.478;10.182;2022-10-31T01:54:30;18.25;;;9.65;;
23743;SDS011;12052;53.478;10.182;2022-10-31T01:57:04;16.85;;;9.77;;
23743;SDS011;12052;53.478;10.182;2022-10-31T01:59:33;16.73;;;9.85;;
23743;SDS011;12052;53.478;10.182;2022-10-31T02:02:05;16.98;;;10.05;;
23743;SDS011;12052;53.478;10.182;2022-10-31T02:04:31;18.38;;;10.48;;
23743;SDS011;12052;53.478;10.182;2022-10-31T02:07:06;13.02;;;8.93;;
23743;SDS011;12052;53.478;10.182;2022-10-31T02:09:35;18.38;;;9.57;;
23743;SDS011;12052;53.478;10.182;2022-10-31T02:12:02;21.08;;;10.27;;
23743;SDS011;12052;53.478;10.182;2022-10-31T02:14:29;16.33;;;9.38;;
23743;SDS011;12052;53.478;10.182;2022-10-31T02:16:56;14.85;;;9.77;;
23743;SDS011;12052;53.478;10.182;2022-10-31T02:30:28;16.63;;;9.13;;
23743;SDS011;12052;53.478;10.182;2022-10-31T02:33:11;21.60;;;9.45;;
23743;SDS011;12052;53.478;10.182;2022-10-31T02:38:38;19.27;;;9.80;;
23743;SDS011;12052;53.478;10.182;2022-10-31T02:44:34;14.93;;;8.95;;
23743;SDS011;12052;53.478;10.182;2022-10-31T02:47:16;16.48;;;9.13;;
23743;SDS011;12052;53.478;10.182;2022-10-31T02:52:14;18.70;;;9.13;;
23743;SDS011;12052;53.478;10.182;2022-10-31T02:54:44;18.27;;;9.63;;
23743;SDS011;12052;53.478;10.182;2022-10-31T02:57:11;12.60;;;8.57;;
23743;SDS011;12052;53.478;10.182;2022-10-31T02:59:38;15.10;;;9.07;;
23743;SDS011;12052;53.478;10.182;2022-10-31T03:10:21;13.18;;;8.95;;
23743;SDS011;12052;53.478;10.182;2022-10-31T03:13:06;16.40;;;9.02;;
23743;SDS011;12052;53.478;10.182;2022-10-31T03:15:48;18.05;;;8.63;;
23743;SDS011;12052;53.478;10.182;2022-10-31T03:18:17;11.75;;;8.00;;
23743;SDS011;12052;53.478;10.182;2022-10-31T03:20:56;13.85;;;8.15;;
23743;SDS011;12052;53.478;10.182;2022-10-31T03:23:25;13.25;;;7.95;;
23743;SDS011;12052;53.478;10.182;2022-10-31T03:25:53;14.50;;;8.13;;
23743;SDS011;12052;53.478;10.182;2022-10-31T03:28:21;14.13;;;7.68;;
23743;SDS011;12052;53.478;10.182;2022-10-31T03:30:51;16.67;;;8.15;;
23743;SDS011;12052;53.478;10.182;2022-10-31T03:33:21;15.40;;;8.52;;
23743;SDS011;12052;53.478;10.182;2022-10-31T03:35:51;9.90;;;7.18;;
23743;SDS011;12052;53.478;10.182;2022-10-31T03:38:21;15.40;;;8.13;;
23743;SDS011;12052;53.478;10.182;2022-10-31T03:40:47;15.15;;;7.35;;
23743;SDS011;12052;53.478;10.182;2022-10-31T03:43:16;10.15;;;7.43;;
23743;SDS011;12052;53.478;10.182;2022-10-31T03:45:46;11.95;;;7.32;;
23743;SDS011;12052;53.478;10.182;2022-10-31T03:48:13;9.60;;;7.00;;
23743;SDS011;12052;53.478;10.182;2022-10-31T03:50:45;14.00;;;7.63;;
23743;SDS011;12052;53.478;10.182;2022-10-31T03:53:22;11.40;;;6.57;;
23743;SDS011;12052;53.478;10.182;2022-10-31T03:56:02;11.45;;;7.68;;
23743;SDS011;12052;53.478;10.182;2022-10-31T03:58:36;13.98;;;6.30;;
23743;SDS011;12052;53.478;10.182;2022-10-31T04:01:08;14.13;;;7.93;;
23743;SDS011;12052;53.478;10.182;2022-10-31T04:03:38;13.60;;;7.10;;
23743;SDS011;12052;53.478;10.182;2022-10-31T04:06:05;20.98;;;7.75;;
23743;SDS011;12052;53.478;10.182;2022-10-31T04:08:35;19.83;;;7.65;;
23743;SDS011;12052;53.478;10.182;2022-10-31T04:11:05;10.32;;;7.30;;
23743;SDS011;12052;53.478;10.182;2022-10-31T04:13:33;16.00;;;7.88;;
23743;SDS011;12052;53.478;10.182;2022-10-31T04:16:02;15.63;;;7.35;;
23743;SDS011;12052;53.478;10.182;2022-10-31T04:18:28;19.75;;;7.82;;
23743;SDS011;12052;53.478;10.182;2022-10-31T04:21:00;24.83;;;8.55;;
23743;SDS011;12052;53.478;10.182;2022-10-31T04:23:31;20.98;;;8.77;;
23743;SDS011;12052;53.478;10.182;2022-10-31T04:25:58;30.63;;;9.50;;
23743;SDS011;12052;53.478;10.182;2022-10-31T04:28:23;20.00;;;9.50;;
23743;SDS011;12052;53.478;10.182;2022-10-31T04:30:49;19.92;;;9.20;;
23743;SDS011;12052;53.478;10.182;2022-10-31T04:33:15;29.20;;;8.95;;
23743;SDS011;12052;53.478;10.182;2022-10-31T04:35:40;22.92;;;10.23;;
23743;SDS011;12052;53.478;10.182;2022-10-31T04:38:06;29.80;;;10.90;;
23743;SDS011;12052;53.478;10.182;2022-10-31T04:40:32;25.52;;;9.57;;
23743;SDS011;12052;53.478;10.182;2022-10-31T04:42:57;33.88;;;11.65;;
23743;SDS011;12052;53.478;10.182;2022-10-31T04:45:23;32.97;;;11.00;;
23743;SDS011;12052;53.478;10.182;2022-10-31T04:47:48;26.88;;;11.02;;
23743;SDS011;12052;53.478;10.182;2022-10-31T04:50:14;34.63;;;13.23;;
23743;SDS011;12052;53.478;10.182;2022-10-31T04:52:41;29.63;;;11.98;;
23743;SDS011;12052;53.478;10.182;2022-10-31T04:55:08;36.25;;;12.88;;
23743;SDS011;12052;53.478;10.182;2022-10-31T04:57:41;30.77;;;12.90;;
23743;SDS011;12052;53.478;10.182;2022-10-31T05:00:12;45.40;;;14.93;;
23743;SDS011;12052;53.478;10.182;2022-10-31T05:02:43;61.05;;;16.10;;
23743;SDS011;12052;53.478;10.182;2022-10-31T05:05:10;46.65;;;15.70;;
23743;SDS011;12052;53.478;10.182;2022-10-31T05:07:39;69.55;;;17.10;;
23743;SDS011;12052;53.478;10.182;2022-10-31T05:10:09;47.83;;;15.32;;
23743;SDS011;12052;53.478;10.182;2022-10-31T05:12:37;48.20;;;15.75;;
23743;SDS011;12052;53.478;10.182;2022-10-31T05:15:03;53.17;;;15.40;;
23743;SDS011;12052;53.478;10.182;2022-10-31T05:17:30;46.28;;;15.60;;
23743;SDS011;12052;53.478;10.182;2022-10-31T05:19:56;45.05;;;16.50;;
23743;SDS011;12052;53.478;10.182;2022-10-31T05:22:22;50.25;;;16.95;;
23743;SDS011;12052;53.478;10.182;2022-10-31T05:24:47;48.97;;;15.05;;
23743;SDS011;12052;53.478;10.182;2022-10-31T05:27:13;54.38;;;16.27;;
23743;SDS011;12052;53.478;10.182;2022-10-31T05:29:38;45.60;;;14.82;;
23743;SDS011;12052;53.478;10.182;2022-10-31T05:32:04;49.60;;;16.90;;
23743;SDS011;12052;53.478;10.182;2022-10-31T05:34:29;37.60;;;15.25;;
23743;SDS011;12052;53.478;10.182;2022-10-31T05:36:55;47.58;;;14.93;;
23743;SDS011;12052;53.478;10.182;2022-10-31T05:39:20;46.22;;;15.88;;
23743;SDS011;12052;53.478;10.182;2022-10-31T05:41:46;46.50;;;16.35;;
23743;SDS011;12052;53.478;10.182;2022-10-31T05:44:11;45.70;;;15.38;;
23743;SDS011;12052;53.478;10.182;2022-10-31T05:46:37;46.97;;;17.20;;
23743;SDS011;12052;53.478;10.182;2022-10-31T05:49:03;55.42;;;17.17;;
23743;SDS011;12052;53.478;10.182;2022-10-31T05:51:28;47.22;;;15.70;;
23743;SDS011;12052;53.478;10.182;2022-10-31T05:53:54;51.42;;;16.50;;
23743;SDS011;12052;53.478;10.182;2022-10-31T05:56:19;48.05;;;17.42;;
23743;SDS011;12052;53.478;10.182;2022-10-31T05:58:45;41.00;;;15.85;;
23743;SDS011;12052;53.478;10.182;2022-10-31T06:01:10;45.50;;;16.15;;
23743;SDS011;12052;53.478;10.182;2022-10-31T06:03:36;44.95;;;15.30;;
23743;SDS011;12052;53.478;10.182;2022-10-31T06:06:01;35.92;;;14.70;;
23743;SDS011;12052;53.478;10.182;2022-10-31T06:08:27;42.30;;;15.43;;
23743;SDS011;12052;53.478;10.182;2022-10-31T06:10:52;53.55;;;17.77;;
23743;SDS011;12052;53.478;10.182;2022-10-31T06:13:18;49.60;;;17.33;;
23743;SDS011;12052;53.478;10.182;2022-10-31T06:15:44;49.92;;;16.70;;
23743;SDS011;12052;53.478;10.182;2022-10-31T06:18:10;41.83;;;16.50;;
23743;SDS011;12052;53.478;10.182;2022-10-31T06:20:35;50.72;;;17.33;;
23743;SDS011;12052;53.478;10.182;2022-10-31T06:23:01;52.95;;;16.92;;
23743;SDS011;12052;53.478;10.182;2022-10-31T06:25:27;43.03;;;15.88;;
23743;SDS011;12052;53.478;10.182;2022-10-31T06:27:53;53.50;;;16.83;;
23743;SDS011;12052;53.478;10.182;2022-10-31T06:30:19;44.53;;;16.45;;
23743;SDS011;12052;53.478;10.182;2022-10-31T06:32:45;48.55;;;16.75;;
23743;SDS011;12052;53.478;10.182;2022-10-31T06:35:11;47.55;;;17.83;;
23743;SDS011;12052;53.478;10.182;2022-10-31T06:37:36;57.50;;;17.73;;
23743;SDS011;12052;53.478;10.182;2022-10-31T06:40:02;48.85;;;15.90;;
23743;SDS011;12052;53.478;10.182;2022-10-31T06:42:28;75.20;;;17.48;;
23743;SDS011;12052;53.478;10.182;2022-10-31T06:44:54;59.75;;;17.55;;
23743;SDS011;12052;53.478;10.182;2022-10-31T06:47:19;68.78;;;18.33;;
23743;SDS011;12052;53.478;10.182;2022-10-31T06:49:45;82.15;;;19.63;;
23743;SDS011;12052;53.478;10.182;2022-10-31T06:52:11;78.82;;;19.45;;
23743;SDS011;12052;53.478;10.182;2022-10-31T06:54:36;74.32;;;20.08;;
23743;SDS011;12052;53.478;10.182;2022-10-31T06:57:02;59.13;;;17.92;;
23743;SDS011;12052;53.478;10.182;2022-10-31T06:59:27;80.53;;;20.88;;
23743;SDS011;12052;53.478;10.182;2022-10-31T07:01:53;83.75;;;20.38;;
23743;SDS011;12052;53.478;10.182;2022-10-31T07:04:18;78.47;;;20.60;;
23743;SDS011;12052;53.478;10.182;2022-10-31T07:06:44;88.25;;;21.50;;
23743;SDS011;12052;53.478;10.182;2022-10-31T07:09:09;79.65;;;20.83;;
23743;SDS011;12052;53.478;10.182;2022-10-31T07:11:35;78.70;;;21.02;;
23743;SDS011;12052;53.478;10.182;2022-10-31T07:14:01;78.10;;;21.25;;
23743;SDS011;12052;53.478;10.182;2022-10-31T07:16:26;62.97;;;19.42;;
23743;SDS011;12052;53.478;10.182;2022-10-31T07:18:52;75.93;;;20.10;;
23743;SDS011;12052;53.478;10.182;2022-10-31T07:21:17;73.53;;;20.70;;
23743;SDS011;12052;53.478;10.182;2022-10-31T07:23:43;83.38;;;21.90;;
23743;SDS011;12052;53.478;10.182;2022-10-31T07:26:09;80.35;;;20.42;;
23743;SDS011;12052;53.478;10.182;2022-10-31T07:28:35;93.78;;;25.48;;
23743;SDS011;12052;53.478;10.182;2022-10-31T07:31:00;96.43;;;25.25;;
23743;SDS011;12052;53.478;10.182;2022-10-31T07:33:26;90.90;;;25.35;;
23743;SDS011;12052;53.478;10.182;2022-10-31T07:35:51;95.80;;;27.13;;
23743;SDS011;12052;53.478;10.182;2022-10-31T07:38:17;90.82;;;26.88;;
23743;SDS011;12052;53.478;10.182;2022-10-31T07:40:43;104.50;;;27.38;;
23743;SDS011;12052;53.478;10.182;2022-10-31T07:43:13;96.35;;;28.00;;
23743;SDS011;12052;53.478;10.182;2022-10-31T07:45:39;96.70;;;27.63;;
23743;SDS011;12052;53.478;10.182;2022-10-31T07:48:05;90.47;;;27.88;;
23743;SDS011;12052;53.478;10.182;2022-10-31T07:50:31;86.78;;;26.25;;
23743;SDS011;12052;53.478;10.182;2022-10-31T07:53:04;94.72;;;25.48;;
23743;SDS011;12052;53.478;10.182;2022-10-31T07:55:31;76.80;;;23.65;;
23743;SDS011;12052;53.478;10.182;2022-10-31T08:00:24;64.35;;;24.30;;
23743;SDS011;12052;53.478;10.182;2022-10-31T08:02:56;78.88;;;24.58;;
23743;SDS011;12052;53.478;10.182;2022-10-31T08:05:23;75.88;;;23.25;;
23743;SDS011;12052;53.478;10.182;2022-10-31T08:07:48;98.28;;;24.00;;
23743;SDS011;12052;53.478;10.182;2022-10-31T08:10:14;75.75;;;22.48;;
23743;SDS011;12052;53.478;10.182;2022-10-31T08:12:39;76.70;;;24.02;;
23743;SDS011;12052;53.478;10.182;2022-10-31T08:15:05;102.15;;;23.88;;
23743;SDS011;12052;53.478;10.182;2022-10-31T08:17:34;93.50;;;24.35;;
23743;SDS011;12052;53.478;10.182;2022-10-31T08:20:00;73.50;;;25.02;;
23743;SDS011;12052;53.478;10.182;2022-10-31T08:22:25;79.97;;;23.38;;
23743;SDS011;12052;53.478;10.182;2022-10-31T08:24:51;85.22;;;24.02;;
23743;SDS011;12052;53.478;10.182;2022-10-31T08:27:16;73.95;;;23.02;;
23743;SDS011;12052;53.478;10.182;2022-10-31T08:29:42;91.88;;;23.65;;
23743;SDS011;12052;53.478;10.182;2022-10-31T08:32:07;83.30;;;22.77;;
23743;SDS011;12052;53.478;10.182;2022-10-31T08:34:33;71.57;;;20.55;;
23743;SDS011;12052;53.478;10.182;2022-10-31T08:36:58;58.33;;;19.95;;
23743;SDS011;12052;53.478;10.182;2022-10-31T08:39:24;62.13;;;20.33;;
23743;SDS011;12052;53.478;10.182;2022-10-31T08:41:49;64.63;;;19.77;;
23743;SDS011;12052;53.478;10.182;2022-10-31T08:44:16;50.22;;;18.10;;
23743;SDS011;12052;53.478;10.182;2022-10-31T08:46:41;56.20;;;19.65;;
23743;SDS011;12052;53.478;10.182;2022-10-31T08:49:07;68.13;;;19.70;;
23743;SDS011;12052;53.478;10.182;2022-10-31T08:51:32;52.83;;;19.20;;
23743;SDS011;12052;53.478;10.182;2022-10-31T08:53:58;54.00;;;18.55;;
23743;SDS011;12052;53.478;10.182;2022-10-31T08:56:23;59.53;;;18.35;;
23743;SDS011;12052;53.478;10.182;2022-10-31T08:58:49;54.05;;;17.02;;
23743;SDS011;12052;53.478;10.182;2022-10-31T09:01:16;54.47;;;18.00;;
23743;SDS011;12052;53.478;10.182;2022-10-31T09:03:41;65.65;;;18.77;;
23743;SDS011;12052;53.478;10.182;2022-10-31T09:06:07;66.63;;;18.77;;
23743;SDS011;12052;53.478;10.182;2022-10-31T09:08:34;69.18;;;18.50;;
23743;SDS011;12052;53.478;10.182;2022-10-31T09:11:00;69.18;;;18.60;;
23743;SDS011;12052;53.478;10.182;2022-10-31T09:13:26;75.00;;;19.20;;
23743;SDS011;12052;53.478;10.182;2022-10-31T09:15:52;70.43;;;17.67;;
23743;SDS011;12052;53.478;10.182;2022-10-31T09:18:21;64.50;;;18.05;;
23743;SDS011;12052;53.478;10.182;2022-10-31T09:20:47;73.90;;;18.35;;
23743;SDS011;12052;53.478;10.182;2022-10-31T09:23:18;71.50;;;19.40;;
23743;SDS011;12052;53.478;10.182;2022-10-31T09:25:45;71.70;;;19.63;;
23743;SDS011;12052;53.478;10.182;2022-10-31T09:28:12;53.38;;;16.65;;
23743;SDS011;12052;53.478;10.182;2022-10-31T09:30:39;49.22;;;16.08;;
23743;SDS011;12052;53.478;10.182;2022-10-31T09:33:06;59.13;;;16.92;;
23743;SDS011;12052;53.478;10.182;2022-10-31T09:35:36;59.50;;;17.48;;
23743;SDS011;12052;53.478;10.182;2022-10-31T09:38:20;55.53;;;16.42;;
23743;SDS011;12052;53.478;10.182;2022-10-31T09:49:28;61.13;;;16.98;;
23743;SDS011;12052;53.478;10.182;2022-10-31T09:52:10;52.90;;;17.20;;
23743;SDS011;12052;53.478;10.182;2022-10-31T09:57:47;53.72;;;16.92;;
23743;SDS011;12052;53.478;10.182;2022-10-31T10:00:17;46.08;;;17.67;;
23743;SDS011;12052;53.478;10.182;2022-10-31T10:02:52;51.80;;;16.77;;
23743;SDS011;12052;53.478;10.182;2022-10-31T10:05:59;44.53;;;15.68;;
23743;SDS011;12052;53.478;10.182;2022-10-31T10:08:34;58.10;;;17.55;;
23743;SDS011;12052;53.478;10.182;2022-10-31T10:11:17;44.67;;;15.02;;
23743;SDS011;12052;53.478;10.182;2022-10-31T10:22:31;47.90;;;16.63;;
23743;SDS011;12052;53.478;10.182;2022-10-31T10:27:49;47.78;;;16.42;;
23743;SDS011;12052;53.478;10.182;2022-10-31T10:30:35;46.78;;;17.77;;
23743;SDS011;12052;53.478;10.182;2022-10-31T10:33:13;48.63;;;17.70;;
23743;SDS011;12052;53.478;10.182;2022-10-31T10:35:59;57.50;;;19.73;;
23743;SDS011;12052;53.478;10.182;2022-10-31T10:38:27;54.95;;;18.95;;
23743;SDS011;12052;53.478;10.182;2022-10-31T10:41:11;54.38;;;17.85;;
23743;SDS011;12052;53.478;10.182;2022-10-31T10:43:40;48.83;;;17.67;;
23743;SDS011;12052;53.478;10.182;2022-10-31T10:49:09;49.83;;;19.15;;
23743;SDS011;12052;53.478;10.182;2022-10-31T10:51:58;56.30;;;19.25;;
23743;SDS011;12052;53.478;10.182;2022-10-31T10:57:58;48.28;;;17.38;;
23743;SDS011;12052;53.478;10.182;2022-10-31T11:00:30;51.67;;;18.90;;
23743;SDS011;12052;53.478;10.182;2022-10-31T11:03:06;46.35;;;17.23;;
23743;SDS011;12052;53.478;10.182;2022-10-31T11:13:29;38.97;;;15.88;;
23743;SDS011;12052;53.478;10.182;2022-10-31T11:18:25;48.60;;;18.40;;
23743;SDS011;12052;53.478;10.182;2022-10-31T11:20:56;51.60;;;19.80;;
23743;SDS011;12052;53.478;10.182;2022-10-31T11:23:24;43.60;;;17.05;;
23743;SDS011;12052;53.478;10.182;2022-10-31T11:26:00;38.72;;;16.80;;
23743;SDS011;12052;53.478;10.182;2022-10-31T11:28:30;37.85;;;16.08;;
23743;SDS011;12052;53.478;10.182;2022-10-31T11:31:00;39.67;;;16.40;;
23743;SDS011;12052;53.478;10.182;2022-10-31T11:33:32;41.35;;;17.08;;
23743;SDS011;12052;53.478;10.182;2022-10-31T11:36:02;44.55;;;17.40;;
23743;SDS011;12052;53.478;10.182;2022-10-31T11:38:41;36.80;;;15.82;;
23743;SDS011;12052;53.478;10.182;2022-10-31T11:43:39;30.42;;;13.45;;
23743;SDS011;12052;53.478;10.182;2022-10-31T11:46:17;36.72;;;14.93;;
23743;SDS011;12052;53.478;10.182;2022-10-31T11:48:49;35.42;;;14.05;;
23743;SDS011;12052;53.478;10.182;2022-10-31T11:51:29;33.00;;;13.63;;
23743;SDS011;12052;53.478;10.182;2022-10-31T11:53:59;30.70;;;13.30;;
23743;SDS011;12052;53.478;10.182;2022-10-31T11:56:27;29.75;;;12.57;;
23743;SDS011;12052;53.478;10.182;2022-10-31T11:59:15;32.47;;;13.00;;
23743;SDS011;12052;53.478;10.182;2022-10-31T12:01:51;29.58;;;14.15;;
23743;SDS011;12052;53.478;10.182;2022-10-31T12:04:18;29.77;;;12.55;;
23743;SDS011;12052;53.478;10.182;2022-10-31T12:06:47;36.65;;;14.65;;
23743;SDS011;12052;53.478;10.182;2022-10-31T12:09:21;30.05;;;13.20;;
23743;SDS011;12052;53.478;10.182;2022-10-31T12:11:55;27.77;;;12.43;;
23743;SDS011;12052;53.478;10.182;2022-10-31T12:17:33;35.50;;;14.23;;
23743;SDS011;12052;53.478;10.182;2022-10-31T12:20:23;33.50;;;13.07;;
23743;SDS011;12052;53.478;10.182;2022-10-31T12:25:45;31.45;;;14.27;;
23743;SDS011;12052;53.478;10.182;2022-10-31T12:28:35;32.88;;;14.75;;
23743;SDS011;12052;53.478;10.182;2022-10-31T12:33:59;35.10;;;13.50;;
23743;SDS011;12052;53.478;10.182;2022-10-31T13:05:00;24.95;;;11.13;;
23743;SDS011;12052;53.478;10.182;2022-10-31T13:10:16;21.73;;;9.52;;
23743;SDS011;12052;53.478;10.182;2022-10-31T13:13:01;17.98;;;8.73;;
23743;SDS011;12052;53.478;10.182;2022-10-31T13:18:10;27.48;;;9.57;;
23743;SDS011;12052;53.478;10.182;2022-10-31T13:23:10;26.17;;;10.57;;
23743;SDS011;12052;53.478;10.182;2022-10-31T13:25:47;27.40;;;10.95;;
23743;SDS011;12052;53.478;10.182;2022-10-31T13:28:31;20.08;;;10.35;;
23743;SDS011;12052;53.478;10.182;2022-10-31T13:31:19;22.92;;;9.40;;
23743;SDS011;12052;53.478;10.182;2022-10-31T13:33:49;24.48;;;10.50;;
23743;SDS011;12052;53.478;10.182;2022-10-31T13:41:48;23.67;;;10.00;;
23743;SDS011;12052;53.478;10.182;2022-10-31T13:46:44;23.50;;;9.60;;
23743;SDS011;12052;53.478;10.182;2022-10-31T13:54:46;26.60;;;10.43;;
23743;SDS011;12052;53.478;10.182;2022-10-31T13:57:19;27.48;;;10.48;;
23743;SDS011;12052;53.478;10.182;2022-10-31T13:59:59;28.58;;;11.02;;
23743;SDS011;12052;53.478;10.182;2022-10-31T14:02:28;26.35;;;11.05;;
23743;SDS011;12052;53.478;10.182;2022-10-31T14:04:59;26.95;;;11.20;;
23743;SDS011;12052;53.478;10.182;2022-10-31T14:07:44;27.20;;;11.20;;
23743;SDS011;12052;53.478;10.182;2022-10-31T14:10:22;26.33;;;11.60;;
23743;SDS011;12052;53.478;10.182;2022-10-31T14:13:02;29.00;;;11.88;;
23743;SDS011;12052;53.478;10.182;2022-10-31T14:18:29;27.63;;;12.73;;
23743;SDS011;12052;53.478;10.182;2022-10-31T14:20:57;25.83;;;11.85;;
23743;SDS011;12052;53.478;10.182;2022-10-31T14:23:31;32.28;;;12.50;;
23743;SDS011;12052;53.478;10.182;2022-10-31T14:26:20;27.98;;;11.98;;
23743;SDS011;12052;53.478;10.182;2022-10-31T14:28:46;32.25;;;12.35;;
23743;SDS011;12052;53.478;10.182;2022-10-31T14:34:04;28.52;;;12.95;;
23743;SDS011;12052;53.478;10.182;2022-10-31T14:39:49;25.13;;;12.05;;
23743;SDS011;12052;53.478;10.182;2022-10-31T14:53:23;33.00;;;13.43;;
23743;SDS011;12052;53.478;10.182;2022-10-31T14:55:53;32.08;;;13.60;;
23743;SDS011;12052;53.478;10.182;2022-10-31T14:58:22;31.55;;;13.48;;
23743;SDS011;12052;53.478;10.182;2022-10-31T15:00:54;38.10;;;13.65;;
23743;SDS011;12052;53.478;10.182;2022-10-31T15:03:24;28.30;;;12.77;;
23743;SDS011;12052;53.478;10.182;2022-10-31T15:05:54;29.30;;;12.40;;
23743;SDS011;12052;53.478;10.182;2022-10-31T15:10:58;29.15;;;11.75;;
23743;SDS011;12052;53.478;10.182;2022-10-31T15:13:28;25.77;;;11.07;;
23743;SDS011;12052;53.478;10.182;2022-10-31T15:15:54;28.05;;;10.88;;
23743;SDS011;12052;53.478;10.182;2022-10-31T15:18:21;28.45;;;10.10;;
23743;SDS011;12052;53.478;10.182;2022-10-31T15:20:49;28.40;;;11.18;;
23743;SDS011;12052;53.478;10.182;2022-10-31T15:23:17;28.23;;;11.23;;
23743;SDS011;12052;53.478;10.182;2022-10-31T15:26:00;28.30;;;10.93;;
23743;SDS011;12052;53.478;10.182;2022-10-31T15:28:27;29.00;;;10.35;;
23743;SDS011;12052;53.478;10.182;2022-10-31T15:30:53;31.10;;;10.75;;
23743;SDS011;12052;53.478;10.182;2022-10-31T15:33:24;26.90;;;10.25;;
23743;SDS011;12052;53.478;10.182;2022-10-31T15:35:58;24.67;;;11.05;;
23743;SDS011;12052;53.478;10.182;2022-10-31T15:38:26;25.08;;;8.68;;
23743;SDS011;12052;53.478;10.182;2022-10-31T15:40:53;24.98;;;10.32;;
23743;SDS011;12052;53.478;10.182;2022-10-31T15:43:32;25.65;;;10.95;;
23743;SDS011;12052;53.478;10.182;2022-10-31T15:46:01;27.50;;;11.00;;
23743;SDS011;12052;53.478;10.182;2022-10-31T15:48:29;24.67;;;10.20;;
23743;SDS011;12052;53.478;10.182;2022-10-31T15:50:57;25.80;;;11.25;;
23743;SDS011;12052;53.478;10.182;2022-10-31T15:53:27;25.08;;;9.55;;
23743;SDS011;12052;53.478;10.182;2022-10-31T15:56:09;24.50;;;10.07;;
23743;SDS011;12052;53.478;10.182;2022-10-31T15:58:42;33.22;;;11.30;;
23743;SDS011;12052;53.478;10.182;2022-10-31T16:03:54;27.88;;;11.40;;
23743;SDS011;12052;53.478;10.182;2022-10-31T16:06:24;22.30;;;9.63;;
23743;SDS011;12052;53.478;10.182;2022-10-31T16:08:50;24.63;;;10.00;;
23743;SDS011;12052;53.478;10.182;2022-10-31T16:11:23;31.73;;;12.73;;
23743;SDS011;12052;53.478;10.182;2022-10-31T16:16:44;25.77;;;9.93;;
23743;SDS011;12052;53.478;10.182;2022-10-31T16:19:23;27.48;;;11.55;;
23743;SDS011;12052;53.478;10.182;2022-10-31T16:21:52;25.60;;;11.25;;
23743;SDS011;12052;53.478;10.182;2022-10-31T16:24:26;28.05;;;11.38;;
23743;SDS011;12052;53.478;10.182;2022-10-31T16:27:05;25.15;;;11.32;;
23743;SDS011;12052;53.478;10.182;2022-10-31T16:29:45;26.15;;;10.93;;
23743;SDS011;12052;53.478;10.182;2022-10-31T16:37:36;32.60;;;11.40;;
23743;SDS011;12052;53.478;10.182;2022-10-31T16:40:05;32.70;;;12.40;;
23743;SDS011;12052;53.478;10.182;2022-10-31T16:42:31;37.03;;;14.52;;
23743;SDS011;12052;53.478;10.182;2022-10-31T16:44:58;36.50;;;15.75;;
23743;SDS011;12052;53.478;10.182;2022-10-31T16:47:24;32.90;;;14.38;;
23743;SDS011;12052;53.478;10.182;2022-10-31T16:49:50;42.50;;;14.75;;
23743;SDS011;12052;53.478;10.182;2022-10-31T16:52:16;34.55;;;14.65;;
23743;SDS011;12052;53.478;10.182;2022-10-31T16:54:42;36.72;;;14.98;;
23743;SDS011;12052;53.478;10.182;2022-10-31T16:57:10;38.33;;;14.88;;
23743;SDS011;12052;53.478;10.182;2022-10-31T16:59:39;36.87;;;14.47;;
23743;SDS011;12052;53.478;10.182;2022-10-31T17:02:06;36.00;;;13.00;;
23743;SDS011;12052;53.478;10.182;2022-10-31T17:04:39;41.20;;;13.85;;
23743;SDS011;12052;53.478;10.182;2022-10-31T17:07:05;46.13;;;15.32;;
23743;SDS011;12052;53.478;10.182;2022-10-31T17:09:30;48.38;;;14.90;;
23743;SDS011;12052;53.478;10.182;2022-10-31T17:11:56;43.22;;;15.05;;